Stillwater, Oklahoma
Current Conditions -  °F | °C
As of 3:53 AM on Wednesday 22 Oct 2014 (Local Time) from KSWO Reporting Station
Clear Clear  
Wind Chill: 60°   Ceiling: Unl
Heat Index: 60°   Visibility: 9mi
Dew Point: 56°   Wind: 3mph
Humidity: 86%   Direction: 130°SE
Pressure: 30.07"   Gusts: NA
Location:  36.12°N, 97.06°W
Report Text: KSWO 220853Z AUTO 13003KT 9SM CLR 16/13 A3007 RMK AO2 SLP172 T01560133 53004
Loading
Personal Weather Stations






























Interactive Weather Map New forecast layout! Learn more

10-Day Weather Forecast

Advertisements
Track Severe Weather on mobile